createdAt,value
2023-03-10T00:00:06.359Z,2.69
2023-03-10T00:02:34.998Z,2.68
2023-03-10T00:05:02.959Z,2.66
2023-03-10T00:07:29.862Z,2.68
2023-03-10T00:09:56.737Z,2.70
2023-03-10T00:12:23.473Z,2.71
2023-03-10T00:14:50.413Z,2.71
2023-03-10T00:17:17.115Z,2.72
2023-03-10T00:19:43.768Z,2.72
2023-03-10T00:22:10.520Z,2.67
2023-03-10T00:24:37.312Z,2.68
2023-03-10T00:27:04.083Z,2.63
2023-03-10T00:29:31.117Z,2.67
2023-03-10T00:31:57.930Z,2.72
2023-03-10T00:34:24.665Z,2.70
2023-03-10T00:36:51.574Z,2.70
2023-03-10T00:39:18.477Z,2.70
2023-03-10T00:41:45.214Z,2.71
2023-03-10T00:44:12.238Z,2.72
2023-03-10T00:46:39.072Z,2.74
2023-03-10T00:49:09.217Z,2.78
2023-03-10T00:51:36.125Z,2.79
2023-03-10T00:54:03.638Z,2.82
2023-03-10T00:56:31.115Z,2.83
2023-03-10T00:59:00.445Z,2.85
2023-03-10T01:01:29.119Z,2.82
2023-03-10T01:03:58.117Z,2.80
2023-03-10T01:06:25.981Z,2.76
2023-03-10T01:08:53.380Z,2.79
2023-03-10T01:11:23.381Z,2.79
2023-03-10T01:13:51.023Z,2.75
2023-03-10T01:16:18.117Z,2.78
2023-03-10T01:18:45.097Z,2.81
2023-03-10T01:21:33.354Z,2.80
2023-03-10T01:24:01.268Z,2.78
2023-03-10T01:26:29.075Z,2.80
2023-03-10T01:28:56.001Z,2.78
2023-03-10T01:31:22.778Z,2.79
2023-03-10T01:33:49.565Z,2.79
2023-03-10T01:36:23.097Z,2.80
2023-03-10T01:38:50.057Z,2.78
2023-03-10T01:41:17.784Z,2.78
2023-03-10T01:43:55.823Z,2.77
2023-03-10T01:46:22.510Z,2.73
2023-03-10T01:48:49.549Z,2.68
2023-03-10T01:51:16.744Z,2.67
2023-03-10T01:53:43.558Z,2.64
2023-03-10T01:56:10.684Z,2.64
2023-03-10T01:58:41.225Z,2.64
2023-03-10T02:01:09.721Z,2.61
2023-03-10T02:04:09.216Z,2.56
2023-03-10T02:06:37.600Z,2.55
2023-03-10T02:09:05.182Z,2.51
2023-03-10T02:11:33.021Z,2.48
2023-03-10T02:14:04.288Z,2.43
2023-03-10T02:16:31.185Z,2.40
2023-03-10T02:18:58.878Z,2.36
2023-03-10T02:21:34.967Z,2.33
2023-03-10T02:24:26.347Z,2.30
2023-03-10T02:27:04.774Z,2.26
2023-03-10T02:29:58.079Z,2.25
2023-03-10T02:32:26.870Z,2.17
2023-03-10T02:34:53.765Z,2.15
2023-03-10T02:37:26.443Z,2.09
2023-03-10T02:39:53.180Z,2.08
2023-03-10T02:42:21.565Z,2.04
2023-03-10T02:44:49.239Z,2.02
2023-03-10T02:47:16.490Z,2.01
2023-03-10T02:49:44.079Z,1.97
2023-03-10T02:52:27.172Z,1.95
2023-03-10T02:54:54.108Z,1.90
2023-03-10T02:57:20.772Z,1.86
2023-03-10T02:59:47.565Z,1.83
2023-03-10T03:02:14.582Z,1.79
2023-03-10T03:04:41.270Z,1.79
2023-03-10T03:07:08.083Z,1.79
2023-03-10T03:09:35.486Z,1.79
2023-03-10T03:12:02.199Z,1.79
2023-03-10T03:14:28.986Z,1.78
2023-03-10T03:16:55.918Z,1.76
2023-03-10T03:19:22.589Z,1.74
2023-03-10T03:21:50.310Z,1.74
2023-03-10T03:24:18.999Z,1.75
2023-03-10T03:26:45.666Z,1.76
2023-03-10T03:30:12.223Z,1.76
2023-03-10T03:37:21.351Z,1.71
2023-03-10T03:40:47.882Z,1.70
2023-03-10T03:48:05.732Z,1.69
2023-03-10T03:51:32.168Z,1.67
2023-03-10T03:57:52.020Z,1.71
2023-03-10T04:00:21.572Z,1.73
2023-03-10T04:02:48.432Z,1.70
2023-03-10T04:05:15.896Z,1.70
2023-03-10T04:07:43.932Z,1.74
2023-03-10T04:10:13.709Z,1.73
2023-03-10T04:12:40.581Z,1.72
2023-03-10T04:15:08.543Z,1.73
2023-03-10T04:17:36.102Z,1.74
2023-03-10T04:20:07.392Z,1.74
2023-03-10T04:22:35.517Z,1.72
2023-03-10T04:25:02.650Z,1.68
2023-03-10T04:27:29.559Z,1.68
2023-03-10T04:29:57.282Z,1.67
2023-03-10T04:32:23.993Z,1.68
2023-03-10T04:34:50.929Z,1.70
2023-03-10T04:37:17.984Z,1.69
2023-03-10T04:39:44.647Z,1.69
2023-03-10T04:42:11.618Z,1.69
2023-03-10T04:44:38.406Z,1.68
2023-03-10T04:47:05.273Z,1.68
2023-03-10T04:49:33.547Z,1.69
2023-03-10T04:52:00.218Z,1.66
2023-03-10T04:54:26.881Z,1.60
2023-03-10T04:56:53.872Z,1.61
2023-03-10T04:59:21.640Z,1.60
2023-03-10T05:01:48.857Z,1.59
2023-03-10T05:04:15.806Z,1.58
2023-03-10T05:06:42.600Z,1.58
2023-03-10T05:09:09.357Z,1.61
2023-03-10T05:11:36.134Z,1.62
2023-03-10T05:14:03.570Z,1.65
2023-03-10T05:16:30.312Z,1.65
2023-03-10T05:18:57.125Z,1.66
2023-03-10T05:21:23.864Z,1.65
2023-03-10T05:23:50.530Z,1.66
2023-03-10T05:26:17.759Z,1.66
2023-03-10T05:28:44.592Z,1.66
2023-03-10T05:31:13.919Z,1.68
2023-03-10T05:33:41.280Z,1.70
2023-03-10T05:36:10.197Z,1.73
2023-03-10T05:38:37.414Z,1.73
2023-03-10T05:41:11.338Z,1.74
2023-03-10T05:43:39.168Z,1.76
2023-03-10T05:46:06.550Z,1.78
2023-03-10T05:48:33.612Z,1.80
2023-03-10T05:51:08.562Z,1.79
2023-03-10T05:53:36.242Z,1.79
2023-03-10T05:56:11.750Z,1.81
2023-03-10T05:58:38.977Z,1.84
2023-03-10T06:01:06.157Z,1.88
2023-03-10T06:03:33.674Z,1.87
2023-03-10T06:06:02.471Z,1.86
2023-03-10T06:08:29.901Z,1.86
2023-03-10T06:10:57.819Z,1.85
2023-03-10T06:13:25.293Z,1.88
2023-03-10T06:15:54.442Z,1.86
2023-03-10T06:18:21.927Z,1.87
2023-03-10T06:20:49.547Z,1.87
2023-03-10T06:23:17.511Z,1.87
2023-03-10T06:25:44.286Z,1.89
2023-03-10T06:28:11.945Z,1.85
2023-03-10T06:30:38.813Z,1.85
2023-03-10T06:33:05.498Z,1.85
2023-03-10T06:35:32.380Z,1.80
2023-03-10T06:37:59.142Z,1.81
2023-03-10T06:40:26.215Z,1.77
2023-03-10T06:42:52.993Z,1.71
2023-03-10T06:45:19.739Z,1.67
2023-03-10T06:47:46.427Z,1.62
2023-03-10T06:50:14.073Z,1.54
2023-03-10T06:52:42.661Z,1.46
2023-03-10T06:55:10.867Z,1.42
2023-03-10T06:57:38.110Z,1.42
2023-03-10T07:00:08.031Z,1.42
2023-03-10T07:02:34.775Z,1.39
2023-03-10T07:05:01.767Z,1.34
2023-03-10T07:07:28.550Z,1.30
2023-03-10T07:09:57.497Z,1.28
2023-03-10T07:12:25.017Z,1.26
2023-03-10T07:14:51.840Z,1.23
2023-03-10T07:17:18.655Z,1.23
2023-03-10T07:19:45.446Z,1.21
2023-03-10T07:22:12.278Z,1.21
2023-03-10T07:24:38.937Z,1.20
2023-03-10T07:27:05.990Z,1.18
2023-03-10T07:29:32.838Z,1.16
2023-03-10T07:31:59.402Z,1.15
2023-03-10T07:34:26.316Z,1.15
2023-03-10T07:36:53.029Z,1.16
2023-03-10T07:39:19.902Z,1.16
2023-03-10T07:41:46.681Z,1.16
2023-03-10T07:44:13.406Z,1.17
2023-03-10T07:46:40.100Z,1.21
2023-03-10T07:49:07.067Z,1.26
2023-03-10T07:51:34.272Z,1.31
2023-03-10T07:54:01.006Z,1.35
2023-03-10T07:56:27.774Z,1.42
2023-03-10T07:58:54.556Z,1.46
2023-03-10T08:01:22.397Z,1.48
2023-03-10T08:03:49.808Z,1.53
2023-03-10T08:06:25.166Z,1.58
2023-03-10T08:09:51.718Z,1.64
2023-03-10T08:12:19.636Z,1.68
2023-03-10T08:14:47.048Z,1.74
2023-03-10T08:17:14.739Z,1.78
2023-03-10T08:19:41.506Z,1.81
2023-03-10T08:22:09.647Z,1.84
2023-03-10T08:24:39.724Z,1.89
2023-03-10T08:27:06.503Z,1.98
2023-03-10T08:29:33.176Z,2.09
2023-03-10T08:31:59.946Z,2.13
2023-03-10T08:34:26.766Z,2.13
2023-03-10T08:36:53.510Z,2.16
2023-03-10T08:39:20.273Z,2.21
2023-03-10T08:41:49.473Z,2.21
2023-03-10T08:44:18.050Z,2.17
2023-03-10T08:46:50.192Z,2.14
2023-03-10T08:49:19.342Z,2.12
2023-03-10T08:51:46.274Z,2.13
2023-03-10T08:54:15.379Z,2.13
2023-03-10T08:56:42.542Z,2.13
2023-03-10T08:59:09.405Z,2.16
2023-03-10T09:01:37.523Z,2.18
2023-03-10T09:04:07.220Z,2.18
2023-03-10T09:06:34.649Z,2.19
2023-03-10T09:09:02.341Z,2.25
2023-03-10T09:11:33.894Z,2.33
2023-03-10T09:14:01.374Z,2.47
2023-03-10T09:16:29.375Z,2.66
2023-03-10T09:18:57.724Z,2.78
2023-03-10T09:21:25.241Z,2.88
2023-03-10T09:23:53.208Z,3.03
2023-03-10T09:26:20.991Z,3.16
2023-03-10T09:28:49.486Z,3.28
2023-03-10T09:31:56.187Z,3.35
2023-03-10T09:34:23.692Z,3.36
2023-03-10T09:36:50.341Z,3.41
2023-03-10T09:39:17.062Z,3.51
2023-03-10T09:42:01.752Z,3.59
2023-03-10T09:44:43.584Z,3.69
2023-03-10T09:47:10.884Z,3.79
2023-03-10T09:49:51.642Z,3.88
2023-03-10T09:52:22.574Z,3.94
2023-03-10T09:55:15.980Z,4.06
2023-03-10T09:57:43.185Z,4.25
2023-03-10T10:00:16.505Z,4.38
2023-03-10T10:02:47.561Z,4.45
2023-03-10T10:05:23.935Z,4.54
2023-03-10T10:07:56.142Z,4.59
2023-03-10T10:10:36.917Z,4.62
2023-03-10T10:13:13.498Z,4.70
2023-03-10T10:15:45.565Z,4.79
2023-03-10T10:18:20.728Z,4.91
2023-03-10T10:25:02.787Z,5.06
2023-03-10T10:27:32.049Z,5.13
2023-03-10T10:29:58.783Z,5.21
2023-03-10T10:32:25.623Z,5.23
2023-03-10T10:34:52.339Z,5.24
2023-03-10T10:37:28.388Z,5.26
2023-03-10T10:39:56.967Z,5.30
2023-03-10T10:42:30.875Z,5.37
2023-03-10T10:45:04.926Z,5.49
2023-03-10T10:47:46.739Z,5.60
2023-03-10T10:50:19.950Z,5.75
2023-03-10T10:52:50.607Z,5.87
2023-03-10T10:55:30.004Z,5.94
2023-03-10T10:58:01.662Z,5.98
2023-03-10T11:00:40.023Z,6.04
2023-03-10T11:03:48.138Z,6.10
2023-03-10T11:06:34.578Z,6.20
2023-03-10T11:09:21.951Z,6.28
2023-03-10T11:12:03.430Z,6.31
2023-03-10T11:14:34.914Z,6.32
2023-03-10T11:17:18.962Z,6.33
2023-03-10T11:20:20.767Z,6.40
2023-03-10T11:23:07.593Z,6.62
2023-03-10T11:26:02.679Z,6.83
2023-03-10T11:28:46.659Z,6.93
2023-03-10T11:31:31.300Z,6.96
2023-03-10T11:34:16.058Z,7.03
2023-03-10T11:37:09.049Z,7.25
2023-03-10T11:39:35.774Z,7.35
2023-03-10T11:42:11.360Z,7.44
2023-03-10T11:45:13.051Z,7.85
2023-03-10T11:47:51.978Z,8.26
2023-03-10T11:50:34.736Z,8.39
2023-03-10T11:53:05.827Z,8.37
2023-03-10T11:55:32.653Z,8.43
2023-03-10T11:58:03.497Z,8.69
2023-03-10T12:00:42.579Z,9.12
2023-03-10T12:03:18.052Z,9.29
2023-03-10T12:05:54.767Z,9.41
2023-03-10T12:08:24.290Z,9.63
2023-03-10T12:10:52.804Z,9.89
2023-03-10T12:13:45.094Z,9.99
2023-03-10T12:16:19.092Z,9.90
2023-03-10T12:18:46.375Z,9.86
2023-03-10T12:21:16.067Z,9.72
2023-03-10T12:23:48.460Z,9.69
2023-03-10T12:26:15.228Z,9.63
2023-03-10T12:28:42.018Z,9.57
2023-03-10T12:31:33.159Z,9.64
2023-03-10T12:34:18.998Z,9.66
2023-03-10T12:36:47.915Z,9.69
2023-03-10T12:39:38.687Z,9.57
2023-03-10T12:42:27.744Z,9.40
2023-03-10T12:45:29.369Z,9.60
2023-03-10T12:48:05.654Z,10.05
2023-03-10T12:50:44.084Z,10.91
2023-03-10T12:53:31.822Z,11.44
2023-03-10T12:56:20.938Z,11.76
2023-03-10T12:58:55.180Z,12.26
2023-03-10T13:01:25.525Z,12.34
2023-03-10T13:03:54.461Z,12.48
2023-03-10T13:06:33.777Z,12.45
2023-03-10T13:09:18.876Z,12.61
2023-03-10T13:11:52.651Z,13.33
2023-03-10T13:14:24.407Z,14.49
2023-03-10T13:17:02.731Z,16.03
2023-03-10T13:19:34.721Z,17.57
2023-03-10T13:22:02.662Z,18.93
2023-03-10T13:24:35.984Z,19.95
2023-03-10T13:27:18.937Z,20.90
2023-03-10T13:30:03.415Z,21.78
2023-03-10T13:32:31.997Z,22.83
2023-03-10T13:35:10.790Z,23.45
2023-03-10T13:37:37.623Z,24.88
2023-03-10T13:40:09.907Z,25.49
2023-03-10T13:42:43.881Z,26.09
2023-03-10T13:45:23.170Z,26.64
2023-03-10T13:47:50.855Z,27.05
2023-03-10T13:50:18.080Z,27.36
2023-03-10T13:52:57.881Z,27.91
2023-03-10T13:55:25.557Z,28.90
2023-03-10T13:58:52.196Z,29.43
2023-03-10T14:01:25.372Z,30.00
2023-03-10T14:04:02.474Z,30.38
2023-03-10T14:06:29.664Z,30.60
2023-03-10T14:09:56.156Z,31.26
2023-03-10T14:17:23.948Z,30.40
2023-03-10T14:20:50.640Z,30.81
2023-03-10T14:27:24.095Z,32.67
2023-03-10T14:30:50.736Z,33.33
2023-03-10T14:37:09.843Z,33.94
2023-03-10T14:39:36.718Z,34.41
2023-03-10T14:42:04.668Z,34.72
2023-03-10T14:44:31.971Z,34.43
2023-03-10T14:46:59.263Z,34.35
2023-03-10T14:49:27.516Z,32.49
2023-03-10T14:51:54.417Z,32.47
2023-03-10T14:54:24.231Z,32.54
2023-03-10T14:56:58.934Z,32.64
2023-03-10T14:59:30.304Z,32.57
2023-03-10T15:02:02.576Z,32.30
2023-03-10T15:04:29.222Z,32.99
2023-03-10T15:06:56.224Z,33.96
2023-03-10T15:09:23.167Z,33.67
2023-03-10T15:11:49.953Z,33.87
2023-03-10T15:14:19.562Z,33.55
2023-03-10T15:16:46.420Z,32.91
2023-03-10T15:19:24.561Z,32.70
2023-03-10T15:21:52.157Z,32.81
2023-03-10T15:25:18.615Z,32.50
2023-03-10T15:28:45.278Z,32.55
2023-03-10T15:35:54.863Z,31.92
2023-03-10T15:39:30.945Z,32.01
2023-03-10T15:46:50.955Z,31.79
2023-03-10T15:50:17.418Z,31.83
2023-03-10T15:57:31.233Z,31.76
2023-03-10T16:00:57.783Z,31.42
2023-03-10T16:08:16.737Z,30.73
2023-03-10T16:11:46.297Z,26.78
2023-03-10T16:15:25.592Z,23.62
2023-03-10T16:18:52.240Z,22.21
2023-03-10T16:22:18.805Z,18.64
2023-03-10T16:25:45.400Z,16.29
2023-03-10T16:29:11.927Z,14.75
2023-03-10T16:38:14.117Z,11.85
2023-03-10T16:40:42.807Z,11.51
2023-03-10T16:44:09.396Z,11.41
2023-03-10T16:50:18.887Z,10.58
2023-03-10T16:52:45.628Z,10.27
2023-03-10T16:55:18.374Z,10.26
2023-03-10T16:57:48.122Z,10.21
2023-03-10T17:00:15.750Z,10.07
2023-03-10T17:02:42.481Z,9.92
2023-03-10T17:05:10.443Z,9.68
2023-03-10T17:07:46.391Z,9.52
2023-03-10T17:10:20.295Z,9.36
2023-03-10T17:12:47.065Z,9.38
2023-03-10T17:15:13.694Z,9.26
2023-03-10T17:17:40.573Z,9.10
2023-03-10T17:20:08.000Z,8.92
2023-03-10T17:22:35.371Z,9.00
2023-03-10T17:25:03.756Z,8.95
2023-03-10T17:27:30.469Z,8.74
2023-03-10T17:29:57.154Z,8.65
2023-03-10T17:32:24.126Z,8.57
2023-03-10T17:34:52.290Z,8.39
2023-03-10T17:37:19.364Z,8.19
2023-03-10T17:39:46.220Z,8.00
2023-03-10T17:42:13.030Z,7.90
2023-03-10T17:44:39.682Z,7.74
2023-03-10T17:47:06.537Z,7.62
2023-03-10T17:49:33.613Z,7.47
2023-03-10T17:52:00.481Z,7.41
2023-03-10T17:54:27.366Z,7.38
2023-03-10T17:56:54.169Z,7.25
2023-03-10T17:59:21.176Z,7.18
2023-03-10T18:01:49.385Z,7.09
2023-03-10T18:04:16.486Z,7.03
2023-03-10T18:06:43.222Z,6.91
2023-03-10T18:09:13.519Z,6.85
2023-03-10T18:11:40.567Z,6.90
2023-03-10T18:14:07.474Z,6.82
2023-03-10T18:16:38.124Z,6.76
2023-03-10T18:19:05.531Z,6.73
2023-03-10T18:21:32.425Z,6.68
2023-03-10T18:23:59.299Z,6.68
2023-03-10T18:26:29.667Z,6.63
2023-03-10T18:28:57.469Z,6.62
2023-03-10T18:31:42.145Z,6.54
2023-03-10T18:34:10.240Z,6.55
2023-03-10T18:36:36.955Z,6.52
2023-03-10T18:39:05.121Z,6.52
2023-03-10T18:41:32.868Z,6.47
2023-03-10T18:44:02.630Z,6.40
2023-03-10T18:46:29.476Z,6.30
2023-03-10T18:48:56.382Z,6.26
2023-03-10T18:51:27.464Z,6.21
2023-03-10T18:53:54.330Z,6.18
2023-03-10T18:56:21.413Z,6.19
2023-03-10T18:58:48.123Z,6.23
2023-03-10T19:01:15.876Z,6.22
2023-03-10T19:03:42.809Z,6.22
2023-03-10T19:06:09.929Z,6.22
2023-03-10T19:08:38.506Z,6.28
2023-03-10T19:11:06.847Z,6.33
2023-03-10T19:13:34.070Z,6.35
2023-03-10T19:16:05.931Z,6.39
2023-03-10T19:18:32.609Z,6.40
2023-03-10T19:21:00.200Z,6.40
2023-03-10T19:23:28.408Z,6.40
2023-03-10T19:25:55.882Z,6.41
2023-03-10T19:28:22.684Z,6.41
2023-03-10T19:30:49.641Z,6.43
2023-03-10T19:33:16.703Z,6.38
2023-03-10T19:35:43.350Z,6.36
2023-03-10T19:38:10.431Z,6.33
2023-03-10T19:40:38.544Z,6.21
2023-03-10T19:43:05.280Z,6.05
2023-03-10T19:45:32.175Z,5.91
2023-03-10T19:47:59.019Z,5.89
2023-03-10T19:50:26.478Z,5.87
2023-03-10T19:52:53.503Z,5.85
2023-03-10T19:55:25.247Z,5.82
2023-03-10T19:57:53.805Z,5.78
2023-03-10T20:00:25.583Z,5.77
2023-03-10T20:02:54.515Z,5.75
2023-03-10T20:05:22.104Z,5.75
2023-03-10T20:07:49.063Z,5.70
2023-03-10T20:10:17.553Z,5.65
2023-03-10T20:12:47.202Z,5.63
2023-03-10T20:15:14.528Z,5.59
2023-03-10T20:17:41.373Z,5.54
2023-03-10T20:20:12.418Z,5.51
2023-03-10T20:22:40.979Z,5.47
2023-03-10T20:25:09.715Z,5.48
2023-03-10T20:27:37.617Z,5.42
2023-03-10T20:30:07.014Z,5.36
2023-03-10T20:32:34.355Z,5.32
2023-03-10T20:35:03.354Z,5.35
2023-03-10T20:37:30.082Z,5.41
2023-03-10T20:39:56.899Z,5.43
2023-03-10T20:42:23.539Z,5.31
2023-03-10T20:44:50.245Z,5.22
2023-03-10T20:47:17.038Z,5.20
2023-03-10T20:49:45.700Z,5.15
2023-03-10T20:52:12.957Z,5.16
2023-03-10T20:54:39.941Z,5.14
2023-03-10T20:57:06.599Z,5.06
2023-03-10T20:59:33.368Z,4.99
2023-03-10T21:02:00.686Z,4.92
2023-03-10T21:04:28.097Z,4.88
2023-03-10T21:06:54.965Z,4.84
2023-03-10T21:09:21.863Z,4.86
2023-03-10T21:11:48.698Z,4.87
2023-03-10T21:14:17.044Z,4.83
2023-03-10T21:16:45.753Z,4.81
2023-03-10T21:19:12.559Z,4.80
2023-03-10T21:21:39.448Z,4.83
2023-03-10T21:24:06.927Z,4.88
2023-03-10T21:26:33.572Z,4.87
2023-03-10T21:29:00.615Z,4.79
2023-03-10T21:31:27.464Z,4.73
2023-03-10T21:33:54.221Z,4.73
2023-03-10T21:36:23.916Z,4.77
2023-03-10T21:38:51.816Z,4.78
2023-03-10T21:41:24.538Z,4.77
2023-03-10T21:43:53.941Z,4.76
2023-03-10T21:46:21.321Z,4.77
2023-03-10T21:48:48.561Z,4.71
2023-03-10T21:51:17.896Z,4.61
2023-03-10T21:53:45.383Z,4.58
2023-03-10T21:56:12.171Z,4.55
2023-03-10T21:58:39.079Z,4.57
2023-03-10T22:01:07.821Z,4.54
2023-03-10T22:03:35.346Z,4.49
2023-03-10T22:06:04.865Z,4.47
2023-03-10T22:08:37.334Z,4.42
2023-03-10T22:11:06.904Z,4.39
2023-03-10T22:13:35.488Z,4.38
2023-03-10T22:16:04.712Z,4.36
2023-03-10T22:18:31.736Z,4.36
2023-03-10T22:21:58.235Z,4.32
2023-03-10T22:29:08.815Z,4.17
2023-03-10T22:32:35.360Z,4.13
2023-03-10T22:39:54.437Z,4.09
2023-03-10T22:42:21.263Z,4.14
2023-03-10T22:45:47.868Z,4.10
2023-03-10T22:48:14.762Z,4.10
2023-03-10T22:50:44.380Z,4.09
2023-03-10T22:54:11.005Z,4.11
2023-03-10T22:56:37.797Z,4.10
2023-03-10T22:59:05.986Z,4.09
2023-03-10T23:01:32.957Z,4.07
2023-03-10T23:03:59.948Z,4.06
2023-03-10T23:06:29.208Z,3.99
2023-03-10T23:08:59.666Z,3.84
2023-03-10T23:11:26.502Z,3.75
2023-03-10T23:13:53.469Z,3.75
2023-03-10T23:16:57.417Z,3.81
2023-03-10T23:19:24.102Z,3.89
2023-03-10T23:21:50.780Z,3.95
2023-03-10T23:25:17.452Z,4.00
2023-03-10T23:31:26.225Z,3.91
2023-03-10T23:33:53.057Z,3.91
2023-03-10T23:36:19.786Z,3.88
2023-03-10T23:38:46.700Z,3.87
2023-03-10T23:41:13.630Z,3.88
2023-03-10T23:43:40.526Z,3.91
2023-03-10T23:46:08.684Z,3.97
2023-03-10T23:48:35.660Z,4.04
2023-03-10T23:51:03.054Z,4.11
2023-03-10T23:53:30.315Z,4.15
2023-03-10T23:55:58.886Z,4.21
2023-03-10T23:58:26.327Z,4.24
